Wind From: 11-12-2017 06:00 Until: 12-12-2017 06:00 warning for: Wind Level: Orange info button

Power and phone distribution networks may be disrupted for relatively long periods., Roofs and chimneys can be damaged. , Tree branches may break. , Vehicles can be deported. , Traffic may be disrupted, particularly on secondary roads in forest areas. Limit your trips. , Limit your speed in highway driving, especially if you drive a vehicle or hitch sensitive to wind. , Do not go for walks in forests or along the coast., In town, be vigilant against possible falling objects., Do not work on roofs and do not touch any electrical line fallen on the ground., Store or secure sensitive objects to wind or likely to be damaged., Always install power generators outside buildings. 


Meteo18 Weather Cam more information Meteo18 Weather Cam


Thunder radar more information blitzortung!


Rain radar more information rain snow radar


Visit our other weather sites:

Template documentation
and downloads

And another site



Weather Underground History page Text

Daily Summary for June 29, 2017 Units:  Both    English   Metric
« Previous Day
Next Day »
Daily Weekly Monthly Yearly Custom
  High: Low: Average:
Temperature: 68.2 °F /  20.1 °C 56.1 °F /  13.4 °C 60.1 °F /  15.6 °C
Dew Point: 58.1 °F /  14.5 °C 51.6 °F /  10.9 °C 54.7 °F /  12.6 °C
Humidity: 95 % 57 % 83 %
Wind Speed: 19 mph /  30.6 km/h - 5.7 mph /  9.2 km/h
Wind Gust: 28 mph /  45.1 km/h - -
Wind:- - SW
Pressure: 29.7 in /  1006.0 hPa 29.5 in /  999.5 hPa -
Precipitation: 0.24 in /  6.1 mm    
Historical Graphs
 
 
Tabular Data for June 29, 2017
Time Temperature Dew Point Pressure Wind Wind Speed Wind Gust Humidity Rainfall Rate (Hourly)
00:02 59.4 °F /  15.2 °C 55.2 °F /  12.9 °C 29.6 in /  1000.9 hPa SW 3 mph /  4.8 km/h 4 mph /  6.4 km/h 86 % 0 in /  0.0 mm
00:12 59 °F /  15.0 °C 55.2 °F /  12.9 °C 29.6 in /  1000.9 hPa SSW 3 mph /  4.8 km/h 4 mph /  6.4 km/h 87 % 0 in /  0.0 mm
00:17 58.8 °F /  14.9 °C 55 °F /  12.8 °C 29.6 in /  1000.9 hPa SSW 3 mph /  4.8 km/h 4 mph /  6.4 km/h 87 % 0 in /  0.0 mm
00:22 58.8 °F /  14.9 °C 55 °F /  12.8 °C 29.6 in /  1000.9 hPa SSW 3 mph /  4.8 km/h 4 mph /  6.4 km/h 87 % 0 in /  0.0 mm
00:27 58.8 °F /  14.9 °C 55 °F /  12.8 °C 29.6 in /  1000.9 hPa SW 4 mph /  6.4 km/h 5 mph /  8.0 km/h 87 % 0 in /  0.0 mm
00:32 59 °F /  15.0 °C 55.2 °F /  12.9 °C 29.6 in /  1000.9 hPa SSW 3 mph /  4.8 km/h 5 mph /  8.0 km/h 87 % 0 in /  0.0 mm
00:42 59.2 °F /  15.1 °C 55.6 °F /  13.1 °C 29.6 in /  1000.6 hPa SW 7 mph /  11.3 km/h 7 mph /  11.3 km/h 88 % 0 in /  0.0 mm
00:52 59.9 °F /  15.5 °C 55.9 °F /  13.3 °C 29.6 in /  1000.6 hPa SSW 3 mph /  4.8 km/h 9 mph /  14.5 km/h 87 % 0 in /  0.0 mm
01:02 60.4 °F /  15.8 °C 55.9 °F /  13.3 °C 29.6 in /  1000.6 hPa SW 6 mph /  9.7 km/h 9 mph /  14.5 km/h 85 % 0 in /  0.0 mm
01:07 60.3 °F /  15.7 °C 55.8 °F /  13.2 °C 29.6 in /  1000.6 hPa SSW 3 mph /  4.8 km/h 9 mph /  14.5 km/h 85 % 0 in /  0.0 mm
01:12 59.9 °F /  15.5 °C 55.8 °F /  13.2 °C 29.6 in /  1000.6 hPa SW 5 mph /  8.0 km/h 9 mph /  14.5 km/h 86 % 0 in /  0.0 mm
01:17 59.5 °F /  15.3 °C 55.6 °F /  13.1 °C 29.6 in /  1000.6 hPa SW 4 mph /  6.4 km/h 8 mph /  12.9 km/h 87 % 0 in /  0.0 mm
01:22 59.4 °F /  15.2 °C 55.4 °F /  13.0 °C 29.6 in /  1000.6 hPa WSW 5 mph /  8.0 km/h 6 mph /  9.7 km/h 87 % 0 in /  0.0 mm
01:32 59.9 °F /  15.5 °C 55.8 °F /  13.2 °C 29.6 in /  1000.6 hPa SW 7 mph /  11.3 km/h 8 mph /  12.9 km/h 86 % 0 in /  0.0 mm
01:37 60.3 °F /  15.7 °C 55.8 °F /  13.2 °C 29.6 in /  1000.6 hPa SSE 4 mph /  6.4 km/h 10 mph /  16.1 km/h 85 % 0 in /  0.0 mm
01:42 60.3 °F /  15.7 °C 55.8 °F /  13.2 °C 29.6 in /  1000.6 hPa SSW 4 mph /  6.4 km/h 10 mph /  16.1 km/h 85 % 0 in /  0.0 mm
01:47 60.3 °F /  15.7 °C 55.8 °F /  13.2 °C 29.5 in /  1000.2 hPa SSW 4 mph /  6.4 km/h 12 mph /  19.3 km/h 85 % 0 in /  0.0 mm
01:52 60.1 °F /  15.6 °C 55.6 °F /  13.1 °C 29.5 in /  1000.2 hPa SSW 2 mph /  3.2 km/h 12 mph /  19.3 km/h 85 % 0 in /  0.0 mm
01:57 59.5 °F /  15.3 °C 55.4 °F /  13.0 °C 29.5 in /  1000.2 hPa SW 3 mph /  4.8 km/h 12 mph /  19.3 km/h 86 % 0 in /  0.0 mm
02:02 59.2 °F /  15.1 °C 55.4 °F /  13.0 °C 29.5 in /  1000.2 hPa SSW 3 mph /  4.8 km/h 10 mph /  16.1 km/h 87 % 0 in /  0.0 mm
02:07 58.8 °F /  14.9 °C 55.2 °F /  12.9 °C 29.5 in /  1000.2 hPa SSW 2 mph /  3.2 km/h 6 mph /  9.7 km/h 88 % 0 in /  0.0 mm
02:12 58.6 °F /  14.8 °C 55 °F /  12.8 °C 29.5 in /  1000.2 hPa SW 2 mph /  3.2 km/h 6 mph /  9.7 km/h 88 % 0 in /  0.0 mm
02:17 58.3 °F /  14.6 °C 55 °F /  12.8 °C 29.5 in /  1000.2 hPa SW 3 mph /  4.8 km/h 4 mph /  6.4 km/h 89 % 0 in /  0.0 mm
02:22 58.1 °F /  14.5 °C 55.2 °F /  12.9 °C 29.5 in /  999.9 hPa SSW 3 mph /  4.8 km/h 4 mph /  6.4 km/h 90 % 0 in /  0.0 mm
02:32 57.9 °F /  14.4 °C 55 °F /  12.8 °C 29.5 in /  999.9 hPa SSW 3 mph /  4.8 km/h 7 mph /  11.3 km/h 90 % 0 in /  0.0 mm
02:42 57.9 °F /  14.4 °C 55 °F /  12.8 °C 29.5 in /  999.9 hPa SW 3 mph /  4.8 km/h 7 mph /  11.3 km/h 90 % 0 in /  0.0 mm
02:52 57.6 °F /  14.2 °C 54.7 °F /  12.6 °C 29.5 in /  999.9 hPa SW 6 mph /  9.7 km/h 6 mph /  9.7 km/h 90 % 0 in /  0.0 mm
02:57 57.4 °F /  14.1 °C 54.9 °F /  12.7 °C 29.5 in /  999.9 hPa SW 5 mph /  8.0 km/h 6 mph /  9.7 km/h 91 % 0 in /  0.0 mm
03:02 57 °F /  13.9 °C 54.5 °F /  12.5 °C 29.5 in /  999.9 hPa SW 3 mph /  4.8 km/h 7 mph /  11.3 km/h 91 % 0 in /  0.0 mm
03:07 57.2 °F /  14.0 °C 54.9 °F /  12.7 °C 29.5 in /  999.9 hPa SSW 6 mph /  9.7 km/h 7 mph /  11.3 km/h 92 % 0 in /  0.0 mm
03:12 57.4 °F /  14.1 °C 55 °F /  12.8 °C 29.5 in /  999.9 hPa WSW 4 mph /  6.4 km/h 7 mph /  11.3 km/h 92 % 0 in /  0.0 mm
03:17 57.6 °F /  14.2 °C 55 °F /  12.8 °C 29.5 in /  999.9 hPa SSW 8 mph /  12.9 km/h 11 mph /  17.7 km/h 91 % 0 in /  0.0 mm
03:22 57.6 °F /  14.2 °C 55 °F /  12.8 °C 29.5 in /  999.9 hPa SW 6 mph /  9.7 km/h 11 mph /  17.7 km/h 91 % 0 in /  0.0 mm
03:32 57.4 °F /  14.1 °C 54.9 °F /  12.7 °C 29.5 in /  999.5 hPa West 2 mph /  3.2 km/h 10 mph /  16.1 km/h 91 % 0 in /  0.0 mm
03:42 57.4 °F /  14.1 °C 55 °F /  12.8 °C 29.5 in /  999.5 hPa SW 3 mph /  4.8 km/h 7 mph /  11.3 km/h 92 % 0 in /  0.0 mm
03:47 57.7 °F /  14.3 °C 55.4 °F /  13.0 °C 29.5 in /  999.5 hPa SSW 3 mph /  4.8 km/h 7 mph /  11.3 km/h 92 % 0 in /  0.0 mm
03:52 57.9 °F /  14.4 °C 55.6 °F /  13.1 °C 29.5 in /  999.5 hPa South 4 mph /  6.4 km/h 7 mph /  11.3 km/h 92 % 0 in /  0.0 mm
03:57 58.3 °F /  14.6 °C 55.6 °F /  13.1 °C 29.5 in /  999.5 hPa SW 6 mph /  9.7 km/h 9 mph /  14.5 km/h 91 % 0 in /  0.0 mm
04:02 58.5 °F /  14.7 °C 55.8 °F /  13.2 °C 29.5 in /  999.5 hPa SW 6 mph /  9.7 km/h 9 mph /  14.5 km/h 91 % 0 in /  0.0 mm
04:12 58.3 °F /  14.6 °C 55.9 °F /  13.3 °C 29.5 in /  999.5 hPa SSW 7 mph /  11.3 km/h 9 mph /  14.5 km/h 92 % 0 in /  0.0 mm
04:17 58.1 °F /  14.5 °C 55.8 °F /  13.2 °C 29.5 in /  999.9 hPa SW 4 mph /  6.4 km/h 10 mph /  16.1 km/h 92 % 0.01 in /  0.3 mm
04:22 57.9 °F /  14.4 °C 55.9 °F /  13.3 °C 29.5 in /  999.5 hPa SSW 1 mph /  1.6 km/h 10 mph /  16.1 km/h 93 % 0.01 in /  0.3 mm
04:27 57.9 °F /  14.4 °C 55.9 °F /  13.3 °C 29.5 in /  999.5 hPa SW 2 mph /  3.2 km/h 10 mph /  16.1 km/h 93 % 0.01 in /  0.3 mm
04:32 57.7 °F /  14.3 °C 55.8 °F /  13.2 °C 29.5 in /  999.5 hPa SSW 3 mph /  4.8 km/h 9 mph /  14.5 km/h 93 % 0.01 in /  0.3 mm
04:42 57.4 °F /  14.1 °C 55.4 °F /  13.0 °C 29.5 in /  999.9 hPa SW 5 mph /  8.0 km/h 8 mph /  12.9 km/h 93 % 0.01 in /  0.3 mm
04:47 57.4 °F /  14.1 °C 55.6 °F /  13.1 °C 29.5 in /  999.9 hPa SSW 2 mph /  3.2 km/h 8 mph /  12.9 km/h 94 % 0.01 in /  0.3 mm
04:52 57.4 °F /  14.1 °C 55.6 °F /  13.1 °C 29.5 in /  999.9 hPa SSW 2 mph /  3.2 km/h 7 mph /  11.3 km/h 94 % 0.01 in /  0.3 mm
04:57 57.4 °F /  14.1 °C 55.6 °F /  13.1 °C 29.5 in /  999.9 hPa SSW 2 mph /  3.2 km/h 7 mph /  11.3 km/h 94 % 0.01 in /  0.3 mm
05:02 57.4 °F /  14.1 °C 55.6 °F /  13.1 °C 29.5 in /  999.9 hPa SW 2 mph /  3.2 km/h 5 mph /  8.0 km/h 94 % 0.01 in /  0.3 mm
05:12 57 °F /  13.9 °C 55.2 °F /  12.9 °C 29.5 in /  999.9 hPa SW 1 mph /  1.6 km/h 5 mph /  8.0 km/h 94 % 0.01 in /  0.3 mm
05:17 57 °F /  13.9 °C 55.2 °F /  12.9 °C 29.5 in /  999.9 hPa Calm   5 mph /  8.0 km/h 94 % 0.01 in /  0.3 mm
05:22 56.8 °F /  13.8 °C 55.2 °F /  12.9 °C 29.5 in /  999.9 hPa Calm   4 mph /  6.4 km/h 94 % 0 in /  0.0 mm
05:27 56.7 °F /  13.7 °C 55 °F /  12.8 °C 29.5 in /  999.9 hPa Calm   4 mph /  6.4 km/h 94 % 0 in /  0.0 mm
05:32 56.5 °F /  13.6 °C 54.9 °F /  12.7 °C 29.5 in /  999.9 hPa SW 1 mph /  1.6 km/h 2 mph /  3.2 km/h 94 % 0 in /  0.0 mm
05:37 56.3 °F /  13.5 °C 54.7 °F /  12.6 °C 29.5 in /  999.9 hPa WSW 1 mph /  1.6 km/h 2 mph /  3.2 km/h 94 % 0 in /  0.0 mm
05:42 56.1 °F /  13.4 °C 54.5 °F /  12.5 °C 29.5 in /  999.9 hPa SSW 2 mph /  3.2 km/h 2 mph /  3.2 km/h 94 % 0 in /  0.0 mm
05:47 56.3 °F /  13.5 °C 54.7 °F /  12.6 °C 29.5 in /  999.9 hPa SSW 2 mph /  3.2 km/h 2 mph /  3.2 km/h 94 % 0 in /  0.0 mm
05:52 56.3 °F /  13.5 °C 54.9 °F /  12.7 °C 29.5 in /  999.9 hPa SW 2 mph /  3.2 km/h 4 mph /  6.4 km/h 95 % 0 in /  0.0 mm
05:57 56.5 °F /  13.6 °C 55 °F /  12.8 °C 29.5 in /  999.9 hPa SW 4 mph /  6.4 km/h 4 mph /  6.4 km/h 95 % 0 in /  0.0 mm
06:02 56.7 °F /  13.7 °C 55.2 °F /  12.9 °C 29.5 in /  999.9 hPa SW 2 mph /  3.2 km/h 6 mph /  9.7 km/h 95 % 0 in /  0.0 mm
06:07 56.8 °F /  13.8 °C 55.4 °F /  13.0 °C 29.5 in /  999.9 hPa SSW 2 mph /  3.2 km/h 6 mph /  9.7 km/h 95 % 0 in /  0.0 mm
06:12 57 °F /  13.9 °C 55.2 °F /  12.9 °C 29.5 in /  999.9 hPa SSW 2 mph /  3.2 km/h 6 mph /  9.7 km/h 94 % 0 in /  0.0 mm
06:17 57.2 °F /  14.0 °C 55.4 °F /  13.0 °C 29.5 in /  1000.2 hPa SW 2 mph /  3.2 km/h 6 mph /  9.7 km/h 94 % 0 in /  0.0 mm
06:22 57.4 °F /  14.1 °C 55.6 °F /  13.1 °C 29.5 in /  1000.2 hPa SW 1 mph /  1.6 km/h 5 mph /  8.0 km/h 94 % 0 in /  0.0 mm
06:32 57.6 °F /  14.2 °C 55.8 °F /  13.2 °C 29.5 in /  1000.2 hPa South 2 mph /  3.2 km/h 5 mph /  8.0 km/h 94 % 0 in /  0.0 mm
06:37 57.6 °F /  14.2 °C 55.8 °F /  13.2 °C 29.5 in /  1000.2 hPa South 1 mph /  1.6 km/h 4 mph /  6.4 km/h 94 % 0 in /  0.0 mm
06:42 57.6 °F /  14.2 °C 55.8 °F /  13.2 °C 29.5 in /  1000.2 hPa WSW 5 mph /  8.0 km/h 5 mph /  8.0 km/h 94 % 0 in /  0.0 mm
06:47 57.7 °F /  14.3 °C 55.9 °F /  13.3 °C 29.5 in /  1000.2 hPa WSW 5 mph /  8.0 km/h 5 mph /  8.0 km/h 94 % 0 in /  0.0 mm
06:52 57.7 °F /  14.3 °C 55.9 °F /  13.3 °C 29.5 in /  1000.2 hPa SSW 2 mph /  3.2 km/h 6 mph /  9.7 km/h 94 % 0 in /  0.0 mm
07:02 57.9 °F /  14.4 °C 56.1 °F /  13.4 °C 29.6 in /  1000.6 hPa WNW 5 mph /  8.0 km/h 6 mph /  9.7 km/h 94 % 0 in /  0.0 mm
07:12 58.1 °F /  14.5 °C 56.3 °F /  13.5 °C 29.6 in /  1000.6 hPa West 3 mph /  4.8 km/h 9 mph /  14.5 km/h 94 % 0 in /  0.0 mm
07:17 58.1 °F /  14.5 °C 56.3 °F /  13.5 °C 29.6 in /  1000.6 hPa West 2 mph /  3.2 km/h 9 mph /  14.5 km/h 94 % 0 in /  0.0 mm
07:22 58.3 °F /  14.6 °C 56.5 °F /  13.6 °C 29.6 in /  1000.6 hPa WSW 2 mph /  3.2 km/h 9 mph /  14.5 km/h 94 % 0 in /  0.0 mm
07:32 58.3 °F /  14.6 °C 56.3 °F /  13.5 °C 29.6 in /  1000.6 hPa West 2 mph /  3.2 km/h 6 mph /  9.7 km/h 93 % 0 in /  0.0 mm
07:37 58.5 °F /  14.7 °C 56.5 °F /  13.6 °C 29.6 in /  1000.9 hPa WNW 5 mph /  8.0 km/h 6 mph /  9.7 km/h 93 % 0 in /  0.0 mm
07:42 58.5 °F /  14.7 °C 55.8 °F /  13.2 °C 29.6 in /  1000.9 hPa WNW 5 mph /  8.0 km/h 8 mph /  12.9 km/h 91 % 0 in /  0.0 mm
07:47 58.5 °F /  14.7 °C 55.6 °F /  13.1 °C 29.6 in /  1000.9 hPa West 4 mph /  6.4 km/h 8 mph /  12.9 km/h 90 % 0 in /  0.0 mm
07:52 58.5 °F /  14.7 °C 55.6 °F /  13.1 °C 29.6 in /  1000.9 hPa WNW 5 mph /  8.0 km/h 11 mph /  17.7 km/h 90 % 0 in /  0.0 mm
07:57 58.5 °F /  14.7 °C 55.6 °F /  13.1 °C 29.6 in /  1000.9 hPa West 4 mph /  6.4 km/h 11 mph /  17.7 km/h 90 % 0 in /  0.0 mm
08:02 58.5 °F /  14.7 °C 55.6 °F /  13.1 °C 29.6 in /  1000.9 hPa West 5 mph /  8.0 km/h 11 mph /  17.7 km/h 90 % 0 in /  0.0 mm
08:12 58.5 °F /  14.7 °C 54.9 °F /  12.7 °C 29.6 in /  1001.2 hPa NW 8 mph /  12.9 km/h 13 mph /  20.9 km/h 88 % 0 in /  0.0 mm
08:17 58.6 °F /  14.8 °C 55.4 °F /  13.0 °C 29.6 in /  1001.2 hPa WSW 4 mph /  6.4 km/h 13 mph /  20.9 km/h 89 % 0 in /  0.0 mm
08:27 58.3 °F /  14.6 °C 54.5 °F /  12.5 °C 29.6 in /  1001.2 hPa West 4 mph /  6.4 km/h 13 mph /  20.9 km/h 87 % 0 in /  0.0 mm
08:32 58.3 °F /  14.6 °C 54.1 °F /  12.3 °C 29.6 in /  1001.2 hPa West 8 mph /  12.9 km/h 11 mph /  17.7 km/h 86 % 0 in /  0.0 mm
08:37 58.3 °F /  14.6 °C 53.4 °F /  11.9 °C 29.6 in /  1001.2 hPa West 2 mph /  3.2 km/h 11 mph /  17.7 km/h 84 % 0 in /  0.0 mm
08:42 58.3 °F /  14.6 °C 53.4 °F /  11.9 °C 29.6 in /  1001.2 hPa WNW 4 mph /  6.4 km/h 10 mph /  16.1 km/h 84 % 0 in /  0.0 mm
08:47 58.3 °F /  14.6 °C 53.8 °F /  12.1 °C 29.6 in /  1001.2 hPa West 2 mph /  3.2 km/h 10 mph /  16.1 km/h 85 % 0 in /  0.0 mm
08:52 58.3 °F /  14.6 °C 53.8 °F /  12.1 °C 29.6 in /  1001.2 hPa SSW 1 mph /  1.6 km/h 13 mph /  20.9 km/h 85 % 0 in /  0.0 mm
08:57 58.3 °F /  14.6 °C 53.8 °F /  12.1 °C 29.6 in /  1001.6 hPa West 5 mph /  8.0 km/h 13 mph /  20.9 km/h 85 % 0 in /  0.0 mm
09:02 58.3 °F /  14.6 °C 54.1 °F /  12.3 °C 29.6 in /  1001.6 hPa WSW 3 mph /  4.8 km/h 8 mph /  12.9 km/h 86 % 0 in /  0.0 mm
09:12 57.9 °F /  14.4 °C 53.8 °F /  12.1 °C 29.6 in /  1001.6 hPa West 2 mph /  3.2 km/h 11 mph /  17.7 km/h 86 % 0 in /  0.0 mm
09:17 58.1 °F /  14.5 °C 54 °F /  12.2 °C 29.6 in /  1001.6 hPa WSW 4 mph /  6.4 km/h 11 mph /  17.7 km/h 86 % 0 in /  0.0 mm
09:22 58.3 °F /  14.6 °C 54.1 °F /  12.3 °C 29.6 in /  1001.6 hPa West 8 mph /  12.9 km/h 11 mph /  17.7 km/h 86 % 0 in /  0.0 mm
09:32 59.4 °F /  15.2 °C 54.9 °F /  12.7 °C 29.6 in /  1001.9 hPa WSW 6 mph /  9.7 km/h 9 mph /  14.5 km/h 85 % 0 in /  0.0 mm
09:37 59.9 °F /  15.5 °C 55 °F /  12.8 °C 29.6 in /  1001.9 hPa WSW 6 mph /  9.7 km/h 9 mph /  14.5 km/h 84 % 0 in /  0.0 mm
09:42 60.3 °F /  15.7 °C 53.8 °F /  12.1 °C 29.6 in /  1001.9 hPa WSW 4 mph /  6.4 km/h 12 mph /  19.3 km/h 79 % 0 in /  0.0 mm
09:47 60.6 °F /  15.9 °C 54.7 °F /  12.6 °C 29.6 in /  1001.6 hPa SW 9 mph /  14.5 km/h 12 mph /  19.3 km/h 81 % 0 in /  0.0 mm
09:52 61.2 °F /  16.2 °C 54.7 °F /  12.6 °C 29.6 in /  1001.6 hPa West 3 mph /  4.8 km/h 14 mph /  22.5 km/h 79 % 0 in /  0.0 mm
09:57 61.5 °F /  16.4 °C 52.7 °F /  11.5 °C 29.6 in /  1001.9 hPa SW 7 mph /  11.3 km/h 14 mph /  22.5 km/h 73 % 0 in /  0.0 mm
10:02 61.2 °F /  16.2 °C 52.9 °F /  11.6 °C 29.6 in /  1001.9 hPa WSW 13 mph /  20.9 km/h 13 mph /  20.9 km/h 74 % 0 in /  0.0 mm
10:07 61 °F /  16.1 °C 52.3 °F /  11.3 °C 29.6 in /  1001.9 hPa SW 4 mph /  6.4 km/h 13 mph /  20.9 km/h 73 % 0 in /  0.0 mm
10:12 61.3 °F /  16.3 °C 53.1 °F /  11.7 °C 29.6 in /  1001.9 hPa WNW 13 mph /  20.9 km/h 17 mph /  27.4 km/h 74 % 0 in /  0.0 mm
10:17 61.5 °F /  16.4 °C 53.6 °F /  12.0 °C 29.6 in /  1001.9 hPa SW 9 mph /  14.5 km/h 17 mph /  27.4 km/h 75 % 0 in /  0.0 mm
10:22 61.7 °F /  16.5 °C 52.9 °F /  11.6 °C 29.6 in /  1001.9 hPa WNW 2 mph /  3.2 km/h 19 mph /  30.6 km/h 73 % 0.01 in /  0.3 mm
10:32 61.9 °F /  16.6 °C 52.7 °F /  11.5 °C 29.6 in /  1002.3 hPa West 9 mph /  14.5 km/h 17 mph /  27.4 km/h 72 % 0.01 in /  0.3 mm
10:37 62.2 °F /  16.8 °C 52.3 °F /  11.3 °C 29.6 in /  1002.3 hPa West 11 mph /  17.7 km/h 17 mph /  27.4 km/h 70 % 0.01 in /  0.3 mm
10:42 62.4 °F /  16.9 °C 52.5 °F /  11.4 °C 29.6 in /  1002.3 hPa West 7 mph /  11.3 km/h 18 mph /  29.0 km/h 70 % 0.01 in /  0.3 mm
10:52 62.8 °F /  17.1 °C 53.6 °F /  12.0 °C 29.6 in /  1002.3 hPa SW 8 mph /  12.9 km/h 18 mph /  29.0 km/h 72 % 0.01 in /  0.3 mm
10:57 62.6 °F /  17.0 °C 53.4 °F /  11.9 °C 29.6 in /  1002.3 hPa WSW 8 mph /  12.9 km/h 18 mph /  29.0 km/h 72 % 0.01 in /  0.3 mm
11:02 62.8 °F /  17.1 °C 53.6 °F /  12.0 °C 29.6 in /  1002.3 hPa West 4 mph /  6.4 km/h 15 mph /  24.1 km/h 72 % 0.01 in /  0.3 mm
11:12 62.1 °F /  16.7 °C 53.2 °F /  11.8 °C 29.6 in /  1002.3 hPa West 9 mph /  14.5 km/h 12 mph /  19.3 km/h 73 % 0.01 in /  0.3 mm
11:17 62.2 °F /  16.8 °C 53.4 °F /  11.9 °C 29.6 in /  1002.3 hPa WSW 4 mph /  6.4 km/h 12 mph /  19.3 km/h 73 % 0.01 in /  0.3 mm
11:22 62.4 °F /  16.9 °C 53.6 °F /  12.0 °C 29.6 in /  1002.3 hPa WSW 7 mph /  11.3 km/h 16 mph /  25.7 km/h 73 % 0 in /  0.0 mm
11:27 62.8 °F /  17.1 °C 53.6 °F /  12.0 °C 29.6 in /  1002.3 hPa West 7 mph /  11.3 km/h 16 mph /  25.7 km/h 72 % 0 in /  0.0 mm
11:32 62.8 °F /  17.1 °C 53.6 °F /  12.0 °C 29.6 in /  1001.9 hPa West 9 mph /  14.5 km/h 12 mph /  19.3 km/h 72 % 0 in /  0.0 mm
11:42 62.8 °F /  17.1 °C 54 °F /  12.2 °C 29.6 in /  1001.9 hPa SW 5 mph /  8.0 km/h 13 mph /  20.9 km/h 73 % 0 in /  0.0 mm
11:47 63.3 °F /  17.4 °C 54.5 °F /  12.5 °C 29.6 in /  1001.9 hPa West 3 mph /  4.8 km/h 13 mph /  20.9 km/h 73 % 0 in /  0.0 mm
11:52 63.3 °F /  17.4 °C 53.4 °F /  11.9 °C 29.6 in /  1002.3 hPa West 8 mph /  12.9 km/h 12 mph /  19.3 km/h 70 % 0 in /  0.0 mm
11:57 63 °F /  17.2 °C 53.4 °F /  11.9 °C 29.6 in /  1001.9 hPa West 8 mph /  12.9 km/h 12 mph /  19.3 km/h 71 % 0 in /  0.0 mm
12:02 62.8 °F /  17.1 °C 53.2 °F /  11.8 °C 29.6 in /  1002.3 hPa SW 7 mph /  11.3 km/h 17 mph /  27.4 km/h 71 % 0 in /  0.0 mm
12:07 62.8 °F /  17.1 °C 53.2 °F /  11.8 °C 29.6 in /  1002.3 hPa West 8 mph /  12.9 km/h 17 mph /  27.4 km/h 71 % 0 in /  0.0 mm
12:12 63 °F /  17.2 °C 54.5 °F /  12.5 °C 29.6 in /  1002.3 hPa SSW 8 mph /  12.9 km/h 19 mph /  30.6 km/h 74 % 0 in /  0.0 mm
12:17 63.5 °F /  17.5 °C 55.8 °F /  13.2 °C 29.6 in /  1002.3 hPa SSW 8 mph /  12.9 km/h 19 mph /  30.6 km/h 76 % 0 in /  0.0 mm
12:22 63.7 °F /  17.6 °C 55.2 °F /  12.9 °C 29.6 in /  1002.3 hPa SW 10 mph /  16.1 km/h 19 mph /  30.6 km/h 74 % 0 in /  0.0 mm
12:32 63.9 °F /  17.7 °C 54.3 °F /  12.4 °C 29.6 in /  1002.3 hPa WNW 7 mph /  11.3 km/h 19 mph /  30.6 km/h 71 % 0 in /  0.0 mm
12:37 63.9 °F /  17.7 °C 54.3 °F /  12.4 °C 29.6 in /  1002.3 hPa WSW 8 mph /  12.9 km/h 20 mph /  32.2 km/h 71 % 0 in /  0.0 mm
12:42 63.9 °F /  17.7 °C 53.4 °F /  11.9 °C 29.6 in /  1002.3 hPa WSW 11 mph /  17.7 km/h 20 mph /  32.2 km/h 69 % 0 in /  0.0 mm
12:47 65.1 °F /  18.4 °C 54.7 °F /  12.6 °C 29.6 in /  1002.3 hPa WSW 17 mph /  27.4 km/h 20 mph /  32.2 km/h 69 % 0 in /  0.0 mm
12:52 64.2 °F /  17.9 °C 53.4 °F /  11.9 °C 29.6 in /  1002.3 hPa WSW 16 mph /  25.7 km/h 20 mph /  32.2 km/h 68 % 0 in /  0.0 mm
12:57 62.4 °F /  16.9 °C 54.7 °F /  12.6 °C 29.6 in /  1002.3 hPa WSW 4 mph /  6.4 km/h 20 mph /  32.2 km/h 76 % 0 in /  0.0 mm
13:02 61.9 °F /  16.6 °C 54.9 °F /  12.7 °C 29.6 in /  1002.3 hPa West 5 mph /  8.0 km/h 20 mph /  32.2 km/h 78 % 0 in /  0.0 mm
13:12 63.1 °F /  17.3 °C 55.8 °F /  13.2 °C 29.6 in /  1002.3 hPa WSW 8 mph /  12.9 km/h 18 mph /  29.0 km/h 77 % 0 in /  0.0 mm
13:17 63.5 °F /  17.5 °C 54.7 °F /  12.6 °C 29.6 in /  1002.3 hPa SW 8 mph /  12.9 km/h 18 mph /  29.0 km/h 73 % 0 in /  0.0 mm
13:22 61.3 °F /  16.3 °C 54.5 °F /  12.5 °C 29.6 in /  1002.9 hPa WSW 15 mph /  24.1 km/h 24 mph /  38.6 km/h 78 % 0 in /  0.0 mm
13:27 58.6 °F /  14.8 °C 53.8 °F /  12.1 °C 29.6 in /  1002.9 hPa SW 12 mph /  19.3 km/h 24 mph /  38.6 km/h 84 % 0 in /  0.0 mm
13:37 56.5 °F /  13.6 °C 52.9 °F /  11.6 °C 29.6 in /  1002.9 hPa WSW 6 mph /  9.7 km/h 25 mph /  40.2 km/h 88 % 0.09 in /  2.3 mm
13:47 56.5 °F /  13.6 °C 53.6 °F /  12.0 °C 29.6 in /  1002.9 hPa SW 8 mph /  12.9 km/h 17 mph /  27.4 km/h 90 % 0.13 in /  3.3 mm
13:52 56.8 °F /  13.8 °C 54 °F /  12.2 °C 29.6 in /  1002.9 hPa SW 8 mph /  12.9 km/h 16 mph /  25.7 km/h 90 % 0.13 in /  3.3 mm
13:57 57.4 °F /  14.1 °C 54.5 °F /  12.5 °C 29.6 in /  1002.9 hPa SW 6 mph /  9.7 km/h 16 mph /  25.7 km/h 90 % 0.13 in /  3.3 mm
14:02 57.9 °F /  14.4 °C 55 °F /  12.8 °C 29.6 in /  1002.9 hPa SW 4 mph /  6.4 km/h 13 mph /  20.9 km/h 90 % 0.13 in /  3.3 mm
14:12 59.4 °F /  15.2 °C 56.5 °F /  13.6 °C 29.6 in /  1002.9 hPa SW 2 mph /  3.2 km/h 9 mph /  14.5 km/h 90 % 0.13 in /  3.3 mm
14:17 60.8 °F /  16.0 °C 58.1 °F /  14.5 °C 29.6 in /  1002.9 hPa WNW 2 mph /  3.2 km/h 9 mph /  14.5 km/h 91 % 0.13 in /  3.3 mm
14:22 60.6 °F /  15.9 °C 56.5 °F /  13.6 °C 29.6 in /  1002.9 hPa WSW 3 mph /  4.8 km/h 8 mph /  12.9 km/h 86 % 0.13 in /  3.3 mm
14:32 61.7 °F /  16.5 °C 58.1 °F /  14.5 °C 29.6 in /  1002.9 hPa WNW 6 mph /  9.7 km/h 7 mph /  11.3 km/h 88 % 0.04 in /  1.0 mm
14:42 62.8 °F /  17.1 °C 56.8 °F /  13.8 °C 29.6 in /  1002.9 hPa West 5 mph /  8.0 km/h 8 mph /  12.9 km/h 81 % 0.01 in /  0.3 mm
14:52 63.7 °F /  17.6 °C 55.6 °F /  13.1 °C 29.6 in /  1002.6 hPa South 11 mph /  17.7 km/h 12 mph /  19.3 km/h 75 % 0 in /  0.0 mm
14:57 64.4 °F /  18.0 °C 56.3 °F /  13.5 °C 29.6 in /  1002.6 hPa SW 14 mph /  22.5 km/h 16 mph /  25.7 km/h 75 % 0 in /  0.0 mm
15:02 64.9 °F /  18.3 °C 56.5 °F /  13.6 °C 29.6 in /  1002.9 hPa West 4 mph /  6.4 km/h 16 mph /  25.7 km/h 74 % 0 in /  0.0 mm
15:12 63.9 °F /  17.7 °C 56.5 °F /  13.6 °C 29.6 in /  1002.9 hPa West 7 mph /  11.3 km/h 17 mph /  27.4 km/h 77 % 0.01 in /  0.3 mm
15:17 63.9 °F /  17.7 °C 56.8 °F /  13.8 °C 29.6 in /  1002.9 hPa SW 5 mph /  8.0 km/h 17 mph /  27.4 km/h 78 % 0.01 in /  0.3 mm
15:22 64 °F /  17.8 °C 57 °F /  13.9 °C 29.6 in /  1002.6 hPa SW 7 mph /  11.3 km/h 17 mph /  27.4 km/h 78 % 0.01 in /  0.3 mm
15:32 64.4 °F /  18.0 °C 54.9 °F /  12.7 °C 29.6 in /  1002.6 hPa SW 11 mph /  17.7 km/h 12 mph /  19.3 km/h 71 % 0.01 in /  0.3 mm
15:42 65.3 °F /  18.5 °C 54.9 °F /  12.7 °C 29.6 in /  1002.6 hPa SSW 9 mph /  14.5 km/h 17 mph /  27.4 km/h 69 % 0.01 in /  0.3 mm
15:47 65.5 °F /  18.6 °C 54.3 °F /  12.4 °C 29.6 in /  1002.6 hPa SW 8 mph /  12.9 km/h 21 mph /  33.8 km/h 67 % 0.01 in /  0.3 mm
15:52 66 °F /  18.9 °C 54 °F /  12.2 °C 29.6 in /  1002.6 hPa SW 7 mph /  11.3 km/h 21 mph /  33.8 km/h 65 % 0.01 in /  0.3 mm
15:57 66.9 °F /  19.4 °C 53.4 °F /  11.9 °C 29.6 in /  1002.6 hPa SW 12 mph /  19.3 km/h 21 mph /  33.8 km/h 62 % 0.01 in /  0.3 mm
16:07 67.3 °F /  19.6 °C 52.5 °F /  11.4 °C 29.6 in /  1002.6 hPa SSW 14 mph /  22.5 km/h 24 mph /  38.6 km/h 59 % 0 in /  0.0 mm
16:12 67.3 °F /  19.6 °C 53.4 °F /  11.9 °C 29.6 in /  1002.3 hPa WSW 12 mph /  19.3 km/h 24 mph /  38.6 km/h 61 % 0 in /  0.0 mm
16:17 68.2 °F /  20.1 °C 54.1 °F /  12.3 °C 29.6 in /  1002.3 hPa WSW 15 mph /  24.1 km/h 22 mph /  35.4 km/h 61 % 0 in /  0.0 mm
16:37 67.5 °F /  19.7 °C 51.6 °F /  10.9 °C 29.6 in /  1002.3 hPa West 3 mph /  4.8 km/h 24 mph /  38.6 km/h 57 % 0 in /  0.0 mm
16:42 66.9 °F /  19.4 °C 51.6 °F /  10.9 °C 29.6 in /  1002.3 hPa South 11 mph /  17.7 km/h 24 mph /  38.6 km/h 58 % 0 in /  0.0 mm
16:52 64 °F /  17.8 °C 54.5 °F /  12.5 °C 29.6 in /  1002.6 hPa West 10 mph /  16.1 km/h 26 mph /  41.8 km/h 71 % 0 in /  0.0 mm
17:02 62.4 °F /  16.9 °C 54.7 °F /  12.6 °C 29.6 in /  1002.9 hPa SW 11 mph /  17.7 km/h 22 mph /  35.4 km/h 76 % 0 in /  0.0 mm
17:12 63.3 °F /  17.4 °C 55.6 °F /  13.1 °C 29.6 in /  1002.6 hPa West 5 mph /  8.0 km/h 15 mph /  24.1 km/h 76 % 0.01 in /  0.3 mm
17:17 64 °F /  17.8 °C 55.2 °F /  12.9 °C 29.6 in /  1002.6 hPa SW 8 mph /  12.9 km/h 14 mph /  22.5 km/h 73 % 0.01 in /  0.3 mm
17:22 64.4 °F /  18.0 °C 54.3 °F /  12.4 °C 29.6 in /  1002.6 hPa WSW 6 mph /  9.7 km/h 14 mph /  22.5 km/h 70 % 0.01 in /  0.3 mm
17:32 64.2 °F /  17.9 °C 55 °F /  12.8 °C 29.6 in /  1002.9 hPa WSW 7 mph /  11.3 km/h 15 mph /  24.1 km/h 72 % 0.01 in /  0.3 mm
17:42 61.9 °F /  16.6 °C 54.3 °F /  12.4 °C 29.6 in /  1002.9 hPa WSW 5 mph /  8.0 km/h 15 mph /  24.1 km/h 76 % 0.01 in /  0.3 mm
17:47 62.1 °F /  16.7 °C 55.4 °F /  13.0 °C 29.6 in /  1002.9 hPa WSW 8 mph /  12.9 km/h 27 mph /  43.4 km/h 79 % 0.04 in /  1.0 mm
17:57 63 °F /  17.2 °C 55.9 °F /  13.3 °C 29.6 in /  1002.9 hPa SW 3 mph /  4.8 km/h 21 mph /  33.8 km/h 78 % 0.04 in /  1.0 mm
18:02 63.7 °F /  17.6 °C 56.7 °F /  13.7 °C 29.6 in /  1002.9 hPa West 5 mph /  8.0 km/h 17 mph /  27.4 km/h 78 % 0.04 in /  1.0 mm
18:12 63.3 °F /  17.4 °C 55.9 °F /  13.3 °C 29.6 in /  1002.9 hPa WSW 7 mph /  11.3 km/h 17 mph /  27.4 km/h 77 % 0.03 in /  0.8 mm
18:17 62.8 °F /  17.1 °C 55 °F /  12.8 °C 29.6 in /  1003.3 hPa SW 13 mph /  20.9 km/h 13 mph /  20.9 km/h 76 % 0.03 in /  0.8 mm
18:22 62.1 °F /  16.7 °C 55.4 °F /  13.0 °C 29.6 in /  1002.9 hPa WSW 10 mph /  16.1 km/h 13 mph /  20.9 km/h 79 % 0.03 in /  0.8 mm
18:27 61.3 °F /  16.3 °C 55 °F /  12.8 °C 29.6 in /  1002.9 hPa SW 7 mph /  11.3 km/h 16 mph /  25.7 km/h 80 % 0.06 in /  1.5 mm
18:32 61.7 °F /  16.5 °C 56.1 °F /  13.4 °C 29.6 in /  1002.9 hPa SW 9 mph /  14.5 km/h 16 mph /  25.7 km/h 82 % 0.06 in /  1.5 mm
18:37 62.1 °F /  16.7 °C 55.8 °F /  13.2 °C 29.6 in /  1002.9 hPa SW 9 mph /  14.5 km/h 15 mph /  24.1 km/h 80 % 0.05 in /  1.3 mm
18:42 62.1 °F /  16.7 °C 55.4 °F /  13.0 °C 29.6 in /  1003.3 hPa SW 10 mph /  16.1 km/h 15 mph /  24.1 km/h 79 % 0.05 in /  1.3 mm
18:52 63.3 °F /  17.4 °C 55.6 °F /  13.1 °C 29.6 in /  1003.3 hPa SW 11 mph /  17.7 km/h 14 mph /  22.5 km/h 76 % 0.03 in /  0.8 mm
18:57 63.9 °F /  17.7 °C 55 °F /  12.8 °C 29.6 in /  1003.3 hPa WSW 15 mph /  24.1 km/h 19 mph /  30.6 km/h 73 % 0.03 in /  0.8 mm
19:02 63.7 °F /  17.6 °C 54.5 °F /  12.5 °C 29.6 in /  1003.3 hPa SW 10 mph /  16.1 km/h 19 mph /  30.6 km/h 72 % 0.03 in /  0.8 mm
19:12 62.4 °F /  16.9 °C 55 °F /  12.8 °C 29.6 in /  1003.3 hPa South 8 mph /  12.9 km/h 23 mph /  37.0 km/h 77 % 0.03 in /  0.8 mm
19:17 61.9 °F /  16.6 °C 54.9 °F /  12.7 °C 29.6 in /  1003.6 hPa WSW 7 mph /  11.3 km/h 23 mph /  37.0 km/h 78 % 0 in /  0.0 mm
19:22 61.7 °F /  16.5 °C 54.5 °F /  12.5 °C 29.6 in /  1003.6 hPa SW 8 mph /  12.9 km/h 23 mph /  37.0 km/h 77 % 0 in /  0.0 mm
19:27 61.7 °F /  16.5 °C 54.9 °F /  12.7 °C 29.6 in /  1003.6 hPa South 5 mph /  8.0 km/h 17 mph /  27.4 km/h 78 % 0 in /  0.0 mm
19:32 61.5 °F /  16.4 °C 54.7 °F /  12.6 °C 29.6 in /  1003.6 hPa SW 7 mph /  11.3 km/h 17 mph /  27.4 km/h 78 % 0 in /  0.0 mm
19:37 61.9 °F /  16.6 °C 54.7 °F /  12.6 °C 29.6 in /  1003.6 hPa West 11 mph /  17.7 km/h 17 mph /  27.4 km/h 77 % 0 in /  0.0 mm
19:42 61.9 °F /  16.6 °C 54.7 °F /  12.6 °C 29.6 in /  1003.9 hPa SW 19 mph /  30.6 km/h 19 mph /  30.6 km/h 77 % 0 in /  0.0 mm
19:47 60.8 °F /  16.0 °C 53.2 °F /  11.8 °C 29.6 in /  1003.9 hPa South 7 mph /  11.3 km/h 28 mph /  45.1 km/h 76 % 0 in /  0.0 mm
19:52 60.1 °F /  15.6 °C 53.2 °F /  11.8 °C 29.6 in /  1003.9 hPa WSW 13 mph /  20.9 km/h 28 mph /  45.1 km/h 78 % 0 in /  0.0 mm
19:57 59.7 °F /  15.4 °C 53.2 °F /  11.8 °C 29.6 in /  1003.9 hPa SW 6 mph /  9.7 km/h 28 mph /  45.1 km/h 79 % 0 in /  0.0 mm
20:02 60.1 °F /  15.6 °C 53.2 °F /  11.8 °C 29.7 in /  1004.3 hPa SW 9 mph /  14.5 km/h 28 mph /  45.1 km/h 78 % 0 in /  0.0 mm
20:12 60.4 °F /  15.8 °C 53.6 °F /  12.0 °C 29.7 in /  1004.3 hPa West 6 mph /  9.7 km/h 18 mph /  29.0 km/h 78 % 0 in /  0.0 mm
20:17 60.6 °F /  15.9 °C 54.1 °F /  12.3 °C 29.7 in /  1004.3 hPa WSW 5 mph /  8.0 km/h 15 mph /  24.1 km/h 79 % 0 in /  0.0 mm
20:22 60.8 °F /  16.0 °C 54.3 °F /  12.4 °C 29.7 in /  1004.3 hPa WSW 8 mph /  12.9 km/h 18 mph /  29.0 km/h 79 % 0.01 in /  0.3 mm
20:27 60.6 °F /  15.9 °C 54.1 °F /  12.3 °C 29.7 in /  1004.3 hPa SSW 6 mph /  9.7 km/h 18 mph /  29.0 km/h 79 % 0.01 in /  0.3 mm
20:32 60.3 °F /  15.7 °C 54.1 °F /  12.3 °C 29.7 in /  1004.3 hPa WSW 6 mph /  9.7 km/h 18 mph /  29.0 km/h 80 % 0.01 in /  0.3 mm
20:42 60.3 °F /  15.7 °C 54.1 °F /  12.3 °C 29.7 in /  1004.6 hPa SW 5 mph /  8.0 km/h 16 mph /  25.7 km/h 80 % 0.01 in /  0.3 mm
20:47 60.1 °F /  15.6 °C 54 °F /  12.2 °C 29.7 in /  1004.3 hPa West 3 mph /  4.8 km/h 14 mph /  22.5 km/h 80 % 0.01 in /  0.3 mm
20:52 59.9 °F /  15.5 °C 54.1 °F /  12.3 °C 29.7 in /  1004.6 hPa SW 4 mph /  6.4 km/h 14 mph /  22.5 km/h 81 % 0.01 in /  0.3 mm
20:57 59.9 °F /  15.5 °C 54.1 °F /  12.3 °C 29.7 in /  1004.6 hPa WSW 5 mph /  8.0 km/h 14 mph /  22.5 km/h 81 % 0.01 in /  0.3 mm
21:02 59.7 °F /  15.4 °C 54.1 °F /  12.3 °C 29.7 in /  1004.6 hPa SSW 5 mph /  8.0 km/h 13 mph /  20.9 km/h 82 % 0.01 in /  0.3 mm
21:12 59.2 °F /  15.1 °C 54.3 °F /  12.4 °C 29.7 in /  1004.6 hPa SSW 4 mph /  6.4 km/h 13 mph /  20.9 km/h 84 % 0.01 in /  0.3 mm
21:17 58.6 °F /  14.8 °C 54.1 °F /  12.3 °C 29.7 in /  1004.6 hPa SW 3 mph /  4.8 km/h 12 mph /  19.3 km/h 85 % 0.01 in /  0.3 mm
21:22 58.5 °F /  14.7 °C 54.3 °F /  12.4 °C 29.7 in /  1005.0 hPa SSW 2 mph /  3.2 km/h 10 mph /  16.1 km/h 86 % 0 in /  0.0 mm
21:32 57.9 °F /  14.4 °C 54.3 °F /  12.4 °C 29.7 in /  1005.0 hPa SW 2 mph /  3.2 km/h 10 mph /  16.1 km/h 88 % 0 in /  0.0 mm
21:42 57.7 °F /  14.3 °C 54.5 °F /  12.5 °C 29.7 in /  1005.0 hPa SSW 2 mph /  3.2 km/h 6 mph /  9.7 km/h 89 % 0 in /  0.0 mm
21:47 57.7 °F /  14.3 °C 54.5 °F /  12.5 °C 29.7 in /  1005.0 hPa South 2 mph /  3.2 km/h 5 mph /  8.0 km/h 89 % 0 in /  0.0 mm
21:52 57.7 °F /  14.3 °C 54.5 °F /  12.5 °C 29.7 in /  1005.3 hPa SSW 4 mph /  6.4 km/h 5 mph /  8.0 km/h 89 % 0 in /  0.0 mm
21:57 57.7 °F /  14.3 °C 54 °F /  12.2 °C 29.7 in /  1005.3 hPa SSW 3 mph /  4.8 km/h 7 mph /  11.3 km/h 87 % 0 in /  0.0 mm
22:02 57.9 °F /  14.4 °C 53.8 °F /  12.1 °C 29.7 in /  1005.3 hPa SSW 3 mph /  4.8 km/h 9 mph /  14.5 km/h 86 % 0 in /  0.0 mm
22:12 58.3 °F /  14.6 °C 53.1 °F /  11.7 °C 29.7 in /  1005.3 hPa SSW 6 mph /  9.7 km/h 9 mph /  14.5 km/h 83 % 0 in /  0.0 mm
22:17 58.3 °F /  14.6 °C 53.1 °F /  11.7 °C 29.7 in /  1005.3 hPa SSW 4 mph /  6.4 km/h 10 mph /  16.1 km/h 83 % 0 in /  0.0 mm
22:22 58.3 °F /  14.6 °C 53.1 °F /  11.7 °C 29.7 in /  1005.6 hPa SSW 6 mph /  9.7 km/h 10 mph /  16.1 km/h 83 % 0 in /  0.0 mm
22:32 58.3 °F /  14.6 °C 53.1 °F /  11.7 °C 29.7 in /  1005.6 hPa SSW 4 mph /  6.4 km/h 11 mph /  17.7 km/h 83 % 0 in /  0.0 mm
22:37 58.3 °F /  14.6 °C 53.1 °F /  11.7 °C 29.7 in /  1005.6 hPa SW 5 mph /  8.0 km/h 11 mph /  17.7 km/h 83 % 0 in /  0.0 mm
22:42 58.1 °F /  14.5 °C 53.2 °F /  11.8 °C 29.7 in /  1005.6 hPa SW 7 mph /  11.3 km/h 11 mph /  17.7 km/h 84 % 0 in /  0.0 mm
22:47 58.3 °F /  14.6 °C 53.1 °F /  11.7 °C 29.7 in /  1005.6 hPa SSW 7 mph /  11.3 km/h 10 mph /  16.1 km/h 83 % 0 in /  0.0 mm
22:52 58.3 °F /  14.6 °C 53.1 °F /  11.7 °C 29.7 in /  1005.6 hPa SW 7 mph /  11.3 km/h 10 mph /  16.1 km/h 83 % 0 in /  0.0 mm
22:57 58.3 °F /  14.6 °C 53.1 °F /  11.7 °C 29.7 in /  1005.6 hPa SW 8 mph /  12.9 km/h 11 mph /  17.7 km/h 83 % 0 in /  0.0 mm
23:02 58.3 °F /  14.6 °C 53.1 °F /  11.7 °C 29.7 in /  1005.6 hPa SW 4 mph /  6.4 km/h 11 mph /  17.7 km/h 83 % 0 in /  0.0 mm
23:12 57.6 °F /  14.2 °C 52.5 °F /  11.4 °C 29.7 in /  1005.6 hPa SSW 4 mph /  6.4 km/h 11 mph /  17.7 km/h 83 % 0 in /  0.0 mm
23:17 57.6 °F /  14.2 °C 52.5 °F /  11.4 °C 29.7 in /  1005.6 hPa SW 5 mph /  8.0 km/h 10 mph /  16.1 km/h 83 % 0 in /  0.0 mm
23:22 57.4 °F /  14.1 °C 52.5 °F /  11.4 °C 29.7 in /  1005.6 hPa SSW 4 mph /  6.4 km/h 11 mph /  17.7 km/h 84 % 0 in /  0.0 mm
23:32 57.2 °F /  14.0 °C 52.3 °F /  11.3 °C 29.7 in /  1006.0 hPa SW 6 mph /  9.7 km/h 11 mph /  17.7 km/h 84 % 0 in /  0.0 mm
23:42 57.7 °F /  14.3 °C 52.7 °F /  11.5 °C 29.7 in /  1006.0 hPa SW 8 mph /  12.9 km/h 10 mph /  16.1 km/h 83 % 0 in /  0.0 mm
23:52 57.9 °F /  14.4 °C 52.5 °F /  11.4 °C 29.7 in /  1006.0 hPa South 5 mph /  8.0 km/h 17 mph /  27.4 km/h 82 % 0 in /  0.0 mm
23:57 57.7 °F /  14.3 °C 52.7 °F /  11.5 °C 29.7 in /  1006.0 hPa SSW 7 mph /  11.3 km/h 17 mph /  27.4 km/h 83 % 0 in /  0.0 mm
Meteo18
Compliments of Weather Underground - 4 mb

Script developed by  Jim McMurry - jmcmurry@mwt.net Adapted for the template by  Wim van der Kuil - Leuven-Template.eu

You find our weather info also at:

European Weather Network

Weather Underground

Equipment we use:

Weather-station
Davis Vue

Weather-program
Meteohub

Weather-server
Raspberry PI 2 B+

Provider
1 and 1

Davis Vue

Meteohub

Raspberry PI 2 B+

1 and 1